METAR Data

Data at: 0926 UTC 23 Jan 2019

METAR for:KSAN (San Diego Intl Arpt, CA, US)
Text:KSAN 230851Z 00000KT 10SM CLR 10/M03 A3034 RMK AO2 SLP274 T01001033 51006
Temperature: 10.0°C ( 50°F)
Dewpoint: -3.3°C ( 26°F) [RH = 39%]
Pressure (altimeter):30.34 inches Hg (1027.5 mb) [Sea level pressure: 1027.4 mb]
Winds:calm
Visibility:10 or more sm (16+ km)
Ceiling:at least 12,000 feet AGL
Clouds:sky clear below 12,000 feet AGL